createdAt,value
2022-08-22T00:00:10.894Z,25.7143
2022-08-22T00:01:10.956Z,25.7143
2022-08-22T00:02:11.019Z,25.6429
2022-08-22T00:02:45.270Z,26.2143
2022-08-22T00:02:55.723Z,25.7143
2022-08-22T00:02:56.261Z,26
2022-08-22T00:02:57.730Z,25.8571
2022-08-22T00:03:00.776Z,26.0714
2022-08-22T00:03:02.492Z,26
2022-08-22T00:03:06.413Z,25.8571
2022-08-22T00:03:10.013Z,25.8571
2022-08-22T00:03:18.465Z,25.6429
2022-08-22T00:04:11.064Z,25.6429
2022-08-22T00:05:11.099Z,25.7143
2022-08-22T00:06:11.137Z,25.7143
2022-08-22T00:07:11.169Z,25.6429
2022-08-22T00:08:11.214Z,25.7143
2022-08-22T00:09:11.252Z,25.6429
2022-08-22T00:10:11.290Z,25.6429
2022-08-22T00:11:11.337Z,25.7143
2022-08-22T00:12:11.398Z,25.7143
2022-08-22T00:13:11.442Z,25.6429
2022-08-22T00:14:11.465Z,25.7143
2022-08-22T00:15:16.793Z,25.7143
2022-08-22T00:16:11.559Z,25.7143
2022-08-22T00:17:11.610Z,25.7143
2022-08-22T00:18:11.684Z,25.6429
2022-08-22T00:19:11.701Z,25.6429
2022-08-22T00:20:11.760Z,25.6429
2022-08-22T00:21:11.776Z,25.7143
2022-08-22T00:22:11.809Z,25.6429
2022-08-22T00:23:11.852Z,25.6429
2022-08-22T00:24:11.893Z,25.6429
2022-08-22T00:25:24.539Z,25.6429
2022-08-22T00:26:11.977Z,25.6429
2022-08-22T00:27:12.025Z,25.6429
2022-08-22T00:28:12.074Z,25.6429
2022-08-22T00:29:12.140Z,25.6429
2022-08-22T00:30:12.154Z,25.6429
2022-08-22T00:31:12.194Z,25.6429
2022-08-22T00:32:12.235Z,25.6429
2022-08-22T00:33:12.281Z,25.6429
2022-08-22T00:34:12.327Z,25.6429
2022-08-22T00:35:12.373Z,25.6429
2022-08-22T00:36:12.413Z,25.6429
2022-08-22T00:37:12.454Z,25.6429
2022-08-22T00:38:12.494Z,25.5714
2022-08-22T00:39:12.536Z,25.5714
2022-08-22T00:40:12.657Z,25.5714
2022-08-22T00:41:12.650Z,25.6429
2022-08-22T00:42:12.653Z,25.6429
2022-08-22T00:43:12.693Z,25.6429
2022-08-22T00:44:12.742Z,25.5714
2022-08-22T00:45:12.783Z,25.6429
2022-08-22T00:46:12.851Z,25.6429
2022-08-22T00:47:12.889Z,25.5714
2022-08-22T00:48:14.394Z,25.6429
2022-08-22T00:49:12.950Z,25.5714
2022-08-22T00:50:12.989Z,25.5714
2022-08-22T00:51:13.025Z,25.5714
2022-08-22T00:52:13.100Z,25.5714
2022-08-22T00:53:13.103Z,25.5714
2022-08-22T00:54:17.568Z,25.6429
2022-08-22T00:55:13.183Z,25.5714
2022-08-22T00:56:13.219Z,25.5714
2022-08-22T00:57:13.275Z,25.5714
2022-08-22T00:58:13.289Z,25.5714
2022-08-22T00:59:23.432Z,25.5714
2022-08-22T01:00:13.376Z,25.5714
2022-08-22T01:01:13.469Z,25.5714
2022-08-22T01:02:13.457Z,25.5714
2022-08-22T01:03:13.492Z,25.5
2022-08-22T01:04:13.527Z,25.5714
2022-08-22T01:05:13.576Z,25.5714
2022-08-22T01:06:13.611Z,25.5714
2022-08-22T01:07:13.680Z,25.5714
2022-08-22T01:08:13.687Z,25.5714
2022-08-22T01:09:13.729Z,25.5714
2022-08-22T01:10:13.770Z,25.5714
2022-08-22T01:11:13.808Z,25.5714
2022-08-22T01:12:13.881Z,25.5714
2022-08-22T01:13:13.895Z,25.5714
2022-08-22T01:14:13.926Z,25.5714
2022-08-22T01:15:13.965Z,25.5714
2022-08-22T01:16:14.007Z,25.5714
2022-08-22T01:17:14.084Z,25.5714
2022-08-22T01:18:14.088Z,25.5
2022-08-22T01:19:14.128Z,25.5714
2022-08-22T01:20:14.167Z,25.5
2022-08-22T01:21:14.216Z,25.5714
2022-08-22T01:22:14.269Z,25.5714
2022-08-22T01:23:14.294Z,25.5714
2022-08-22T01:24:14.332Z,25.5714
2022-08-22T01:25:14.384Z,25.5714
2022-08-22T01:26:14.456Z,25.5
2022-08-22T01:27:14.453Z,25.5
2022-08-22T01:28:14.489Z,25.5
2022-08-22T01:29:14.532Z,25.5714
2022-08-22T01:30:14.568Z,25.5714
2022-08-22T01:31:14.620Z,25.5714
2022-08-22T01:32:14.643Z,25.5714
2022-08-22T01:33:14.683Z,25.5
2022-08-22T01:34:14.721Z,25.5
2022-08-22T01:35:14.762Z,25.5
2022-08-22T01:36:14.924Z,25.5
2022-08-22T01:37:14.828Z,25.5
2022-08-22T01:38:14.882Z,25.5
2022-08-22T01:39:14.925Z,25.5
2022-08-22T01:40:15.031Z,25.5
2022-08-22T01:41:14.975Z,25.5
2022-08-22T01:42:15.231Z,25.5
2022-08-22T01:43:15.058Z,25.5
2022-08-22T01:44:15.118Z,25.5
2022-08-22T01:45:15.131Z,25.5
2022-08-22T01:46:15.175Z,25.5
2022-08-22T01:47:15.214Z,25.5
2022-08-22T01:48:15.258Z,25.5
2022-08-22T01:49:15.311Z,25.5
2022-08-22T01:50:15.346Z,25.5
2022-08-22T01:51:15.385Z,25.5
2022-08-22T01:52:15.425Z,25.5
2022-08-22T01:53:15.469Z,25.5
2022-08-22T01:54:15.514Z,25.5
2022-08-22T01:55:15.566Z,25.5
2022-08-22T01:56:15.602Z,25.5
2022-08-22T01:57:15.667Z,25.5
2022-08-22T01:58:15.687Z,25.5
2022-08-22T01:59:15.872Z,25.5
2022-08-22T02:00:15.794Z,25.5
2022-08-22T02:01:15.869Z,25.5
2022-08-22T02:02:15.868Z,25.5
2022-08-22T02:03:15.909Z,25.4286
2022-08-22T02:04:15.946Z,25.5
2022-08-22T02:05:16.019Z,25.5
2022-08-22T02:06:16.039Z,25.5
2022-08-22T02:07:16.089Z,25.4286
2022-08-22T02:08:16.128Z,25.4286
2022-08-22T02:09:16.164Z,25.4286
2022-08-22T02:10:16.235Z,25.4286
2022-08-22T02:11:16.254Z,25.4286
2022-08-22T02:12:21.493Z,25.4286
2022-08-22T02:13:16.329Z,25.4286
2022-08-22T02:14:16.375Z,25.4286
2022-08-22T02:15:16.441Z,25.4286
2022-08-22T02:16:16.455Z,25.4286
2022-08-22T02:21:21.728Z,25.4286
2022-08-22T02:27:16.912Z,25.4286
2022-08-22T02:28:16.956Z,25.4286
2022-08-22T02:29:16.993Z,25.4286
2022-08-22T02:30:17.041Z,25.4286
2022-08-22T02:31:17.084Z,25.3571
2022-08-22T02:32:17.126Z,25.4286
2022-08-22T02:33:17.170Z,25.4286
2022-08-22T02:34:17.201Z,25.4286
2022-08-22T02:35:17.242Z,25.4286
2022-08-22T02:36:17.285Z,25.4286
2022-08-22T02:37:17.328Z,25.3571
2022-08-22T02:38:19.388Z,25.3571
2022-08-22T02:39:17.407Z,25.3571
2022-08-22T02:40:17.517Z,25.4286
2022-08-22T02:41:17.477Z,25.5
2022-08-22T02:42:17.520Z,25.5
2022-08-22T02:43:17.566Z,25.5
2022-08-22T02:44:17.602Z,25.5714
2022-08-22T02:45:17.638Z,25.5714
2022-08-22T02:46:17.687Z,25.5714
2022-08-22T02:47:17.727Z,25.6429
2022-08-22T02:48:17.767Z,25.7143
2022-08-22T02:49:17.830Z,25.7143
2022-08-22T02:50:17.851Z,25.7143
2022-08-22T02:51:17.891Z,25.6429
2022-08-22T02:52:17.951Z,25.7143
2022-08-22T02:53:17.972Z,25.7143
2022-08-22T02:54:18.010Z,25.7857
2022-08-22T02:55:18.052Z,25.7857
2022-08-22T02:56:18.091Z,25.7857
2022-08-22T02:57:18.162Z,25.8571
2022-08-22T02:58:18.165Z,25.9286
2022-08-22T02:59:18.202Z,25.9286
2022-08-22T03:00:31.448Z,25.9286
2022-08-22T03:01:18.281Z,25.9286
2022-08-22T03:02:18.332Z,26
2022-08-22T03:03:18.339Z,26.1429
2022-08-22T03:04:18.376Z,26.2143
2022-08-22T03:05:18.411Z,26.2143
2022-08-22T03:06:18.447Z,26.2143
2022-08-22T03:07:18.501Z,26.2143
2022-08-22T03:08:18.516Z,26.2143
2022-08-22T03:09:18.559Z,26.2143
2022-08-22T03:10:18.582Z,26.2857
2022-08-22T03:11:18.613Z,26.2857
2022-08-22T03:12:18.655Z,26.2857
2022-08-22T03:13:18.693Z,26.2857
2022-08-22T03:14:18.736Z,26.2143
2022-08-22T03:15:18.756Z,26.2857
2022-08-22T03:16:18.798Z,26.2857
2022-08-22T03:17:18.835Z,26.3571
2022-08-22T03:18:18.893Z,26.2857
2022-08-22T03:19:19.111Z,26.2857
2022-08-22T03:20:18.955Z,26.3571
2022-08-22T03:21:19.012Z,26.3571
2022-08-22T03:22:19.024Z,26.3571
2022-08-22T03:23:19.084Z,26.3571
2022-08-22T03:24:19.107Z,26.3571
2022-08-22T03:25:19.138Z,26.4286
2022-08-22T03:26:19.178Z,26.3571
2022-08-22T03:27:32.464Z,26.4286
2022-08-22T03:28:19.252Z,26.2857
2022-08-22T03:29:19.289Z,26.2143
2022-08-22T03:30:19.339Z,26.1429
2022-08-22T03:31:19.376Z,26.1429
2022-08-22T03:32:19.405Z,26.1429
2022-08-22T03:33:19.444Z,26.1429
2022-08-22T03:34:19.465Z,26.0714
2022-08-22T03:35:19.501Z,26
2022-08-22T03:36:19.531Z,26
2022-08-22T03:37:19.573Z,25.9286
2022-08-22T03:38:19.611Z,25.8571
2022-08-22T03:39:19.643Z,26
2022-08-22T03:40:19.803Z,25.9286
2022-08-22T03:41:19.715Z,25.9286
2022-08-22T03:42:19.757Z,25.9286
2022-08-22T03:43:19.797Z,25.9286
2022-08-22T03:44:19.837Z,26
2022-08-22T03:45:19.879Z,25.9286
2022-08-22T03:46:19.918Z,26
2022-08-22T03:47:19.957Z,26
2022-08-22T03:48:19.997Z,25.9286
2022-08-22T03:49:20.027Z,25.7857
2022-08-22T03:50:20.064Z,25.7143
2022-08-22T03:51:20.099Z,25.7143
2022-08-22T03:52:20.134Z,25.7143
2022-08-22T03:53:20.165Z,25.6429
2022-08-22T03:54:20.203Z,25.5714
2022-08-22T03:55:20.265Z,25.6429
2022-08-22T03:56:20.287Z,25.5714
2022-08-22T03:57:20.322Z,25.5714
2022-08-22T03:58:27.556Z,25.5
2022-08-22T04:02:24.691Z,25.2857
2022-08-22T04:03:20.545Z,25.2857
2022-08-22T04:07:28.180Z,24.8571
2022-08-22T04:08:25.609Z,24.7857
2022-08-22T04:09:20.757Z,24.7857
2022-08-22T04:10:20.799Z,24.7143
2022-08-22T04:11:20.854Z,24.7143
2022-08-22T04:12:20.869Z,24.6429
2022-08-22T04:13:20.915Z,24.6429
2022-08-22T04:16:21.064Z,24.5714
2022-08-22T04:17:21.074Z,24.5
2022-08-22T04:18:21.107Z,24.5714
2022-08-22T04:19:21.149Z,24.5714
2022-08-22T04:20:21.181Z,24.5714
2022-08-22T04:21:21.224Z,24.5
2022-08-22T04:22:21.260Z,24.3571
2022-08-22T04:23:21.300Z,24.2857
2022-08-22T04:24:21.341Z,24.3571
2022-08-22T04:25:21.374Z,24.3571
2022-08-22T04:26:21.410Z,24.3571
2022-08-22T04:27:21.464Z,24.3571
2022-08-22T04:28:21.492Z,24.3571
2022-08-22T04:29:21.537Z,24.2857
2022-08-22T04:30:21.583Z,24.2857
2022-08-22T04:31:21.634Z,24.2857
2022-08-22T04:32:21.649Z,24.2857
2022-08-22T04:33:21.704Z,24.2857
2022-08-22T04:34:21.718Z,24.2857
2022-08-22T04:35:21.762Z,24.2857
2022-08-22T04:36:21.802Z,24.2143
2022-08-22T04:37:21.866Z,24.2143
2022-08-22T04:38:21.883Z,24.1429
2022-08-22T04:39:21.910Z,24.1429
2022-08-22T04:40:22.061Z,24.2857
2022-08-22T04:41:21.984Z,23.9286
2022-08-22T04:42:32.823Z,23.5
2022-08-22T04:43:22.094Z,23.3571
2022-08-22T04:44:22.098Z,23.2857
2022-08-22T04:45:22.137Z,23.1429
2022-08-22T04:46:22.199Z,23.1429
2022-08-22T04:47:22.234Z,23.1429
2022-08-22T04:48:22.244Z,23
2022-08-22T04:49:22.283Z,23
2022-08-22T04:50:22.327Z,23.0714
2022-08-22T04:51:22.362Z,23.4286
2022-08-22T04:52:22.405Z,23.7143
2022-08-22T04:53:22.437Z,23.9286
2022-08-22T04:54:22.473Z,24.0714
2022-08-22T04:55:22.511Z,24.1429
2022-08-22T04:56:22.550Z,24.2143
2022-08-22T04:57:22.589Z,24.2143
2022-08-22T04:58:22.628Z,24.2857
2022-08-22T04:59:22.664Z,24.2857
2022-08-22T05:00:22.705Z,24.4286
2022-08-22T05:01:22.835Z,24.4286
2022-08-22T05:02:22.820Z,24.7143
2022-08-22T05:03:22.852Z,24.7143
2022-08-22T05:04:22.891Z,24.7143
2022-08-22T05:05:22.928Z,24.5714
2022-08-22T05:06:22.968Z,24.3571
2022-08-22T05:07:23.003Z,24.2857
2022-08-22T05:08:23.037Z,24.3571
2022-08-22T05:09:23.076Z,24.3571
2022-08-22T05:10:23.105Z,24.3571
2022-08-22T05:11:23.149Z,24.3571
2022-08-22T05:12:23.188Z,24.2857
2022-08-22T05:13:23.240Z,24.2143
2022-08-22T05:14:23.258Z,24.2143
2022-08-22T05:15:23.548Z,24.2143
2022-08-22T05:16:23.333Z,24.2857
2022-08-22T05:17:23.397Z,24.2857
2022-08-22T05:18:23.412Z,24.3571
2022-08-22T05:19:31.216Z,24.3571
2022-08-22T05:20:23.491Z,24.2143
2022-08-22T05:21:23.517Z,24.1429
2022-08-22T05:22:23.539Z,24.0714
2022-08-22T05:23:23.576Z,24
2022-08-22T05:24:23.621Z,23.9286
2022-08-22T05:25:23.691Z,23.8571
2022-08-22T05:26:23.696Z,23.8571
2022-08-22T05:27:23.734Z,23.9286
2022-08-22T05:28:23.775Z,23.9286
2022-08-22T05:29:23.810Z,23.9286
2022-08-22T05:30:23.891Z,23.9286
2022-08-22T05:31:24.050Z,23.8571
2022-08-22T05:32:23.912Z,23.9286
2022-08-22T05:33:23.945Z,23.8571
2022-08-22T05:34:23.982Z,23.8571
2022-08-22T05:35:24.043Z,23.8571
2022-08-22T05:38:24.170Z,23.9286
2022-08-22T05:41:24.287Z,23.9286
2022-08-22T05:42:24.298Z,23.9286
2022-08-22T05:46:26.919Z,23.8571
2022-08-22T05:47:24.500Z,24
2022-08-22T05:51:24.654Z,24.3571
2022-08-22T05:52:24.914Z,24.3571
2022-08-22T05:55:24.825Z,24.5
2022-08-22T05:56:25.600Z,24.5
2022-08-22T05:57:24.882Z,24.5714
2022-08-22T05:58:24.902Z,24.5
2022-08-22T05:59:24.936Z,24.5714
2022-08-22T06:00:24.974Z,24.6429
2022-08-22T06:01:25.058Z,24.7143
2022-08-22T06:02:25.054Z,24.6429
2022-08-22T06:03:25.090Z,24.5714
2022-08-22T06:04:25.125Z,24.5714
2022-08-22T06:05:25.168Z,24.6429
2022-08-22T06:06:25.207Z,24.7143
2022-08-22T06:07:25.239Z,24.6429
2022-08-22T06:08:25.280Z,24.7143
2022-08-22T06:09:25.312Z,24.6429
2022-08-22T06:10:25.352Z,24.6429
2022-08-22T06:11:25.390Z,24.7143
2022-08-22T06:12:25.430Z,24.5714
2022-08-22T06:13:25.563Z,24.6429
2022-08-22T06:14:25.504Z,24.7143
2022-08-22T06:15:25.528Z,24.6429
2022-08-22T06:16:25.570Z,24.5714
2022-08-22T06:17:25.597Z,24.5
2022-08-22T06:18:25.633Z,24.4286
2022-08-22T06:19:25.668Z,24.1429
2022-08-22T06:20:25.702Z,24
2022-08-22T06:21:25.743Z,24
2022-08-22T06:22:25.788Z,23.9286
2022-08-22T06:23:25.821Z,23.8571
2022-08-22T06:24:25.854Z,23.8571
2022-08-22T06:25:25.892Z,23.9286
2022-08-22T06:26:25.966Z,23.9286
2022-08-22T06:27:25.968Z,23.7857
2022-08-22T06:28:26.005Z,23.7857
2022-08-22T06:29:26.048Z,23.7857
2022-08-22T06:30:26.079Z,23.7143
2022-08-22T06:31:26.140Z,23.8571
2022-08-22T06:32:31.543Z,23.8571
2022-08-22T06:33:26.178Z,23.9286
2022-08-22T06:34:26.220Z,23.9286
2022-08-22T06:35:26.272Z,23.9286
2022-08-22T06:36:26.288Z,24.7143
2022-08-22T06:37:26.342Z,31.0714
2022-08-22T06:38:26.375Z,28.6429
2022-08-22T06:39:26.412Z,26.6429
2022-08-22T06:40:26.530Z,25.5714
2022-08-22T06:41:26.479Z,25
2022-08-22T06:42:26.515Z,24.6429
2022-08-22T06:43:26.545Z,24.5
2022-08-22T06:44:26.582Z,24.3571
2022-08-22T06:45:26.614Z,24.2857
2022-08-22T06:46:26.641Z,24.2143
2022-08-22T06:47:26.677Z,24.2143
2022-08-22T06:48:26.716Z,24.1429
2022-08-22T06:49:26.753Z,25.5714
2022-08-22T06:50:26.852Z,25.2857
2022-08-22T06:51:26.824Z,24.8571
2022-08-22T06:52:26.858Z,24.5
2022-08-22T06:53:26.894Z,24.5
2022-08-22T06:54:28.083Z,24.4286
2022-08-22T06:55:26.970Z,24.2143
2022-08-22T06:56:27.006Z,24.1429
2022-08-22T06:57:27.054Z,24.0714
2022-08-22T06:58:27.096Z,24
2022-08-22T06:59:27.129Z,24
2022-08-22T07:00:27.184Z,24
2022-08-22T07:01:27.261Z,25.9286
2022-08-22T07:02:27.263Z,25
2022-08-22T07:03:27.340Z,24.5
2022-08-22T07:04:27.354Z,24.2857
2022-08-22T07:05:27.409Z,24.1429
2022-08-22T07:06:27.458Z,24
2022-08-22T07:07:27.499Z,24
2022-08-22T07:08:27.556Z,24
2022-08-22T07:09:27.580Z,24
2022-08-22T07:10:27.615Z,24
2022-08-22T07:11:27.667Z,24
2022-08-22T07:12:27.706Z,23.9286
2022-08-22T07:13:27.747Z,25.5714
2022-08-22T07:14:27.793Z,24.8571
2022-08-22T07:15:27.837Z,24.5
2022-08-22T07:16:27.877Z,24.2143
2022-08-22T07:17:27.917Z,24.0714
2022-08-22T07:18:27.958Z,24
2022-08-22T07:19:28.004Z,24
2022-08-22T07:20:28.120Z,23.9286
2022-08-22T07:21:28.093Z,24
2022-08-22T07:22:28.141Z,24
2022-08-22T07:23:28.183Z,24
2022-08-22T07:24:28.228Z,23.9286
2022-08-22T07:25:28.277Z,23.9286
2022-08-22T07:26:28.319Z,23.9286
2022-08-22T07:27:28.367Z,23.7857
2022-08-22T07:28:36.622Z,23.9286
2022-08-22T07:29:28.460Z,23.9286
2022-08-22T07:30:28.693Z,23.8571
2022-08-22T07:31:28.614Z,23.8571
2022-08-22T07:32:28.606Z,23.8571
2022-08-22T07:33:28.656Z,23.8571
2022-08-22T07:34:28.690Z,23.8571
2022-08-22T07:35:28.746Z,23.7857
2022-08-22T07:36:31.764Z,23.7143
2022-08-22T07:37:28.877Z,23.7143
2022-08-22T07:38:28.884Z,23.8571
2022-08-22T07:39:28.928Z,23.7143
2022-08-22T07:40:28.971Z,23.7857
2022-08-22T07:41:29.014Z,23.7857
2022-08-22T07:42:30.356Z,23.8571
2022-08-22T07:58:26.199Z,23.7143
2022-08-22T07:59:26.238Z,23.6429
2022-08-22T08:00:26.288Z,23.6429
2022-08-22T08:01:26.464Z,23.7143
2022-08-22T08:02:26.390Z,24.1429
2022-08-22T08:03:26.434Z,24.0714
2022-08-22T08:04:26.479Z,23.9286
2022-08-22T08:05:26.527Z,23.8571
2022-08-22T08:06:26.573Z,23.7857
2022-08-22T08:07:26.623Z,23.7857
2022-08-22T08:08:26.673Z,23.7857
2022-08-22T08:09:26.712Z,23.8571
2022-08-22T08:10:26.770Z,23.7857
2022-08-22T08:11:26.812Z,23.8571
2022-08-22T08:12:26.860Z,23.9286
2022-08-22T08:13:26.897Z,24
2022-08-22T08:14:26.936Z,23.9286
2022-08-22T08:15:26.995Z,23.8571
2022-08-22T08:16:27.033Z,23.7857
2022-08-22T08:17:31.831Z,23.7857
2022-08-22T08:18:27.116Z,24.2143
2022-08-22T08:19:27.156Z,24
2022-08-22T08:20:27.198Z,24.0714
2022-08-22T08:21:27.236Z,23.9286
2022-08-22T08:22:27.275Z,23.8571
2022-08-22T08:23:27.315Z,24.0714
2022-08-22T08:24:27.351Z,23.9286
2022-08-22T08:25:27.388Z,23.9286
2022-08-22T08:26:27.434Z,23.8571
2022-08-22T08:27:27.473Z,23.9286
2022-08-22T08:28:27.519Z,23.9286
2022-08-22T08:29:27.566Z,23.9286
2022-08-22T08:30:27.605Z,23.8571
2022-08-22T08:31:27.648Z,23.8571
2022-08-22T08:32:27.693Z,23.8571
2022-08-22T08:33:27.735Z,23.8571
2022-08-22T08:34:27.774Z,23.8571
2022-08-22T08:35:27.815Z,23.9286
2022-08-22T08:36:27.867Z,24
2022-08-22T08:37:27.903Z,24
2022-08-22T08:38:27.943Z,24
2022-08-22T08:39:35.013Z,24
2022-08-22T08:40:28.036Z,24
2022-08-22T08:41:28.072Z,24
2022-08-22T08:42:28.120Z,24
2022-08-22T08:43:28.158Z,23.9286
2022-08-22T08:44:28.203Z,23.9286
2022-08-22T08:45:29.000Z,23.9286
2022-08-22T08:46:28.284Z,24
2022-08-22T08:47:28.329Z,23.9286
2022-08-22T08:48:28.368Z,23.8571
2022-08-22T08:49:28.432Z,23.9286
2022-08-22T08:50:28.445Z,23.9286
2022-08-22T08:51:28.490Z,23.8571
2022-08-22T08:52:28.529Z,23.8571
2022-08-22T08:53:28.570Z,23.8571
2022-08-22T08:54:28.613Z,23.7857
2022-08-22T08:55:28.654Z,23.7857
2022-08-22T08:56:28.700Z,23.7143
2022-08-22T08:57:28.737Z,23.7143
2022-08-22T08:58:28.806Z,23.7143
2022-08-22T08:59:28.831Z,23.7857
2022-08-22T09:00:29.057Z,23.7857
2022-08-22T09:01:28.952Z,23.7857
2022-08-22T09:03:31.148Z,23.7857
2022-08-22T09:04:29.096Z,23.7857
2022-08-22T09:05:29.158Z,23.7857
2022-08-22T09:06:29.220Z,23.7857
2022-08-22T09:07:29.273Z,23.7857
2022-08-22T09:08:29.328Z,23.7857
2022-08-22T09:09:29.386Z,23.7857
2022-08-22T09:10:29.607Z,23.7857
2022-08-22T09:11:29.500Z,23.7857
2022-08-22T09:12:29.558Z,23.7857
2022-08-22T09:13:29.632Z,23.7857
2022-08-22T09:14:29.674Z,23.7857
2022-08-22T09:15:29.733Z,23.7857
2022-08-22T09:16:29.786Z,23.7857
2022-08-22T09:17:29.844Z,23.7857
2022-08-22T09:18:29.904Z,23.7857
2022-08-22T09:19:29.962Z,23.7857
2022-08-22T09:20:30.026Z,23.7857
2022-08-22T09:21:31.185Z,23.7857
2022-08-22T09:22:33.467Z,23.7857
2022-08-22T09:23:30.196Z,23.7857
2022-08-22T09:24:30.253Z,23.7857
2022-08-22T09:25:38.573Z,23.7857
2022-08-22T09:26:30.376Z,23.7857
2022-08-22T09:27:30.432Z,23.7857
2022-08-22T09:28:30.489Z,23.7857
2022-08-22T09:29:30.542Z,23.7857
2022-08-22T09:30:30.601Z,23.7857
2022-08-22T09:32:30.723Z,23.7857
2022-08-22T09:33:30.775Z,23.7857
2022-08-22T09:34:30.836Z,23.7857
2022-08-22T09:35:30.899Z,23.7857
2022-08-22T09:36:30.956Z,23.7857
2022-08-22T09:37:31.016Z,23.7857
2022-08-22T09:38:31.075Z,23.7857
2022-08-22T09:39:31.151Z,23.7857
2022-08-22T09:40:15.326Z,23.7857
2022-08-22T09:40:31.189Z,23.7857
2022-08-22T09:41:31.240Z,23.7857
2022-08-22T09:42:31.295Z,23.7857
2022-08-22T09:43:33.715Z,23.7857
2022-08-22T09:44:31.426Z,23.7857
2022-08-22T09:45:31.461Z,23.7857
2022-08-22T09:46:36.772Z,23.7857
2022-08-22T09:47:32.773Z,23.7857
2022-08-22T09:48:31.636Z,23.7857
2022-08-22T09:49:31.694Z,23.7857
2022-08-22T09:50:31.745Z,23.7857
2022-08-22T09:51:33.187Z,23.7857
2022-08-22T09:52:35.771Z,23.7857
2022-08-22T09:53:31.916Z,23.7857
2022-08-22T09:54:32.801Z,23.7857
2022-08-22T09:55:35.290Z,23.7857
2022-08-22T09:56:32.090Z,23.7857
2022-08-22T09:57:32.150Z,23.7857
2022-08-22T09:58:32.211Z,23.7857
